sensor_id;sensor_type;location;lat;lon;timestamp;pressure;altitude;pressure_sealevel;temperature;humidity
19096;BME280;9680;52.520;13.332;2024-01-15T00:02:08;99089.69;;;2.47;86.39
19096;BME280;9680;52.520;13.332;2024-01-15T00:04:36;99089.78;;;2.44;86.59
19096;BME280;9680;52.520;13.332;2024-01-15T00:07:04;99085.56;;;2.41;87.00
19096;BME280;9680;52.520;13.332;2024-01-15T00:09:30;99087.28;;;2.41;87.03
19096;BME280;9680;52.520;13.332;2024-01-15T00:11:57;99073.56;;;2.42;87.15
19096;BME280;9680;52.520;13.332;2024-01-15T00:14:24;99076.91;;;2.44;87.21
19096;BME280;9680;52.520;13.332;2024-01-15T00:16:52;99072.69;;;2.41;87.15
19096;BME280;9680;52.520;13.332;2024-01-15T00:19:20;99069.25;;;2.42;87.07
19096;BME280;9680;52.520;13.332;2024-01-15T00:21:47;99057.25;;;2.43;87.21
19096;BME280;9680;52.520;13.332;2024-01-15T00:24:14;99051.22;;;2.44;87.08
19096;BME280;9680;52.520;13.332;2024-01-15T00:26:41;99052.91;;;2.45;87.00
19096;BME280;9680;52.520;13.332;2024-01-15T00:29:08;99050.31;;;2.45;86.87
19096;BME280;9680;52.520;13.332;2024-01-15T00:31:34;99040.03;;;2.45;87.12
19096;BME280;9680;52.520;13.332;2024-01-15T00:34:02;99032.53;;;2.39;87.01
19096;BME280;9680;52.520;13.332;2024-01-15T00:36:29;99025.59;;;2.41;86.91
19096;BME280;9680;52.520;13.332;2024-01-15T00:38:56;99018.81;;;2.38;86.68
19096;BME280;9680;52.520;13.332;2024-01-15T00:41:23;99022.28;;;2.37;86.60
19096;BME280;9680;52.520;13.332;2024-01-15T00:43:49;99020.38;;;2.44;86.41
19096;BME280;9680;52.520;13.332;2024-01-15T00:46:16;99018.63;;;2.44;86.29
19096;BME280;9680;52.520;13.332;2024-01-15T00:48:43;99024.63;;;2.45;86.11
19096;BME280;9680;52.520;13.332;2024-01-15T00:51:11;99014.44;;;2.42;86.16
19096;BME280;9680;52.520;13.332;2024-01-15T00:53:38;99006.88;;;2.37;86.15
19096;BME280;9680;52.520;13.332;2024-01-15T00:56:05;99015.31;;;2.41;86.12
19096;BME280;9680;52.520;13.332;2024-01-15T00:58:31;99000.63;;;2.44;85.87
19096;BME280;9680;52.520;13.332;2024-01-15T01:00:58;99013.59;;;2.41;85.80
19096;BME280;9680;52.520;13.332;2024-01-15T01:03:25;99005.94;;;2.40;85.90
19096;BME280;9680;52.520;13.332;2024-01-15T01:05:51;99002.72;;;2.33;86.46
19096;BME280;9680;52.520;13.332;2024-01-15T01:08:20;98996.78;;;2.31;86.62
19096;BME280;9680;52.520;13.332;2024-01-15T01:10:46;99003.72;;;2.27;86.73
19096;BME280;9680;52.520;13.332;2024-01-15T01:13:13;99008.09;;;2.25;87.01
19096;BME280;9680;52.520;13.332;2024-01-15T01:15:40;99018.72;;;2.14;87.95
19096;BME280;9680;52.520;13.332;2024-01-15T01:18:07;98992.44;;;2.04;88.40
19096;BME280;9680;52.520;13.332;2024-01-15T01:20:33;98998.56;;;2.00;88.91
19096;BME280;9680;52.520;13.332;2024-01-15T01:23:00;99001.44;;;1.91;89.33
19096;BME280;9680;52.520;13.332;2024-01-15T01:25:28;99011.81;;;1.86;90.07
19096;BME280;9680;52.520;13.332;2024-01-15T01:27:55;99013.56;;;1.86;90.32
19096;BME280;9680;52.520;13.332;2024-01-15T01:30:21;99020.41;;;1.85;90.62
19096;BME280;9680;52.520;13.332;2024-01-15T01:32:48;99008.44;;;1.86;90.57
19096;BME280;9680;52.520;13.332;2024-01-15T01:35:15;99009.25;;;1.86;90.89
19096;BME280;9680;52.520;13.332;2024-01-15T01:37:41;99005.06;;;1.84;91.01
19096;BME280;9680;52.520;13.332;2024-01-15T01:40:09;99011.19;;;1.80;91.42
19096;BME280;9680;52.520;13.332;2024-01-15T01:42:38;99012.97;;;1.78;91.55
19096;BME280;9680;52.520;13.332;2024-01-15T01:45:05;99003.66;;;1.73;91.37
19096;BME280;9680;52.520;13.332;2024-01-15T01:47:32;99008.97;;;1.67;91.99
19096;BME280;9680;52.520;13.332;2024-01-15T01:49:59;99003.19;;;1.59;92.71
19096;BME280;9680;52.520;13.332;2024-01-15T01:52:26;99011.94;;;1.53;93.23
19096;BME280;9680;52.520;13.332;2024-01-15T01:54:53;98999.28;;;1.47;93.64
19096;BME280;9680;52.520;13.332;2024-01-15T01:57:21;99000.09;;;1.48;93.86
19096;BME280;9680;52.520;13.332;2024-01-15T01:59:50;99010.19;;;1.54;93.93
19096;BME280;9680;52.520;13.332;2024-01-15T02:02:18;98991.41;;;1.53;93.44
19096;BME280;9680;52.520;13.332;2024-01-15T02:04:46;98988.88;;;1.52;93.80
19096;BME280;9680;52.520;13.332;2024-01-15T02:07:13;98979.38;;;1.54;93.58
19096;BME280;9680;52.520;13.332;2024-01-15T02:09:44;98982.19;;;1.46;93.17
19096;BME280;9680;52.520;13.332;2024-01-15T02:12:11;98976.38;;;1.39;93.07
19096;BME280;9680;52.520;13.332;2024-01-15T02:14:39;98977.53;;;1.29;93.47
19096;BME280;9680;52.520;13.332;2024-01-15T02:17:07;98961.44;;;1.24;93.82
19096;BME280;9680;52.520;13.332;2024-01-15T02:19:34;98980.19;;;1.26;93.72
19096;BME280;9680;52.520;13.332;2024-01-15T02:22:00;98986.13;;;1.28;93.58
19096;BME280;9680;52.520;13.332;2024-01-15T02:24:28;98981.59;;;1.36;94.30
19096;BME280;9680;52.520;13.332;2024-01-15T02:26:55;98973.81;;;1.39;93.16
19096;BME280;9680;52.520;13.332;2024-01-15T02:29:22;98977.25;;;1.40;92.94
19096;BME280;9680;52.520;13.332;2024-01-15T02:31:49;98976.31;;;1.42;92.58
19096;BME280;9680;52.520;13.332;2024-01-15T02:34:15;98972.06;;;1.41;92.31
19096;BME280;9680;52.520;13.332;2024-01-15T02:36:42;98973.72;;;1.42;92.40
19096;BME280;9680;52.520;13.332;2024-01-15T02:39:09;98957.34;;;1.48;92.11
19096;BME280;9680;52.520;13.332;2024-01-15T02:41:37;98966.03;;;1.42;91.72
19096;BME280;9680;52.520;13.332;2024-01-15T02:44:04;98965.41;;;1.34;91.40
19096;BME280;9680;52.520;13.332;2024-01-15T02:46:30;98957.72;;;1.34;91.60
19096;BME280;9680;52.520;13.332;2024-01-15T02:48:57;98969.53;;;1.40;91.53
19096;BME280;9680;52.520;13.332;2024-01-15T02:51:23;98960.16;;;1.39;91.19
19096;BME280;9680;52.520;13.332;2024-01-15T02:53:50;98962.50;;;1.47;91.61
19096;BME280;9680;52.520;13.332;2024-01-15T02:56:17;98966.53;;;1.55;91.31
19096;BME280;9680;52.520;13.332;2024-01-15T02:58:45;98950.88;;;1.63;91.01
19096;BME280;9680;52.520;13.332;2024-01-15T03:01:12;98965.34;;;1.67;90.62
19096;BME280;9680;52.520;13.332;2024-01-15T03:03:39;98957.53;;;1.70;90.42
19096;BME280;9680;52.520;13.332;2024-01-15T03:06:06;98946.09;;;1.81;90.47
19096;BME280;9680;52.520;13.332;2024-01-15T03:08:33;98947.72;;;1.83;89.48
19096;BME280;9680;52.520;13.332;2024-01-15T03:11:00;98954.59;;;1.83;89.22
19096;BME280;9680;52.520;13.332;2024-01-15T03:13:27;98941.66;;;1.86;88.71
19096;BME280;9680;52.520;13.332;2024-01-15T03:15:55;98939.00;;;1.89;88.66
19096;BME280;9680;52.520;13.332;2024-01-15T03:18:22;98940.63;;;1.92;88.38
19096;BME280;9680;52.520;13.332;2024-01-15T03:20:48;98939.78;;;1.91;87.85
19096;BME280;9680;52.520;13.332;2024-01-15T03:23:15;98946.84;;;1.84;87.13
19096;BME280;9680;52.520;13.332;2024-01-15T03:25:42;98939.19;;;1.83;87.72
19096;BME280;9680;52.520;13.332;2024-01-15T03:28:08;98939.91;;;1.86;87.21
19096;BME280;9680;52.520;13.332;2024-01-15T03:30:35;98941.75;;;1.83;87.15
19096;BME280;9680;52.520;13.332;2024-01-15T03:33:04;98933.06;;;1.87;87.02
19096;BME280;9680;52.520;13.332;2024-01-15T03:35:30;98935.56;;;1.88;86.99
19096;BME280;9680;52.520;13.332;2024-01-15T03:37:57;98940.13;;;1.80;86.59
19096;BME280;9680;52.520;13.332;2024-01-15T03:40:24;98937.41;;;1.85;86.51
19096;BME280;9680;52.520;13.332;2024-01-15T03:42:51;98928.13;;;1.81;86.33
19096;BME280;9680;52.520;13.332;2024-01-15T03:45:17;98918.66;;;1.83;86.57
19096;BME280;9680;52.520;13.332;2024-01-15T03:47:44;98915.97;;;1.86;86.18
19096;BME280;9680;52.520;13.332;2024-01-15T03:50:12;98922.63;;;1.92;86.11
19096;BME280;9680;52.520;13.332;2024-01-15T03:52:39;98918.25;;;1.95;85.74
19096;BME280;9680;52.520;13.332;2024-01-15T03:55:06;98913.13;;;1.95;85.49
19096;BME280;9680;52.520;13.332;2024-01-15T03:57:33;98903.84;;;1.91;85.41
19096;BME280;9680;52.520;13.332;2024-01-15T03:59:59;98910.78;;;1.87;85.34
19096;BME280;9680;52.520;13.332;2024-01-15T04:02:26;98910.66;;;1.92;85.49
19096;BME280;9680;52.520;13.332;2024-01-15T04:04:53;98892.56;;;1.95;84.98
19096;BME280;9680;52.520;13.332;2024-01-15T04:07:21;98897.81;;;1.92;84.86
19096;BME280;9680;52.520;13.332;2024-01-15T04:09:47;98893.50;;;1.93;85.04
19096;BME280;9680;52.520;13.332;2024-01-15T04:12:14;98890.00;;;1.95;85.14
19096;BME280;9680;52.520;13.332;2024-01-15T04:14:41;98892.72;;;1.91;84.85
19096;BME280;9680;52.520;13.332;2024-01-15T04:17:08;98879.03;;;1.90;84.97
19096;BME280;9680;52.520;13.332;2024-01-15T04:19:34;98875.59;;;1.91;84.51
19096;BME280;9680;52.520;13.332;2024-01-15T04:22:01;98867.09;;;1.89;84.84
19096;BME280;9680;52.520;13.332;2024-01-15T04:24:31;98879.94;;;1.89;84.59
19096;BME280;9680;52.520;13.332;2024-01-15T04:26:58;98893.50;;;1.93;84.80
19096;BME280;9680;52.520;13.332;2024-01-15T04:29:24;98884.91;;;1.94;84.51
19096;BME280;9680;52.520;13.332;2024-01-15T04:31:52;98890.03;;;1.94;84.39
19096;BME280;9680;52.520;13.332;2024-01-15T04:34:19;98893.38;;;1.97;84.42
19096;BME280;9680;52.520;13.332;2024-01-15T04:36:46;98886.34;;;2.02;83.80
19096;BME280;9680;52.520;13.332;2024-01-15T04:39:12;98892.38;;;2.01;83.56
19096;BME280;9680;52.520;13.332;2024-01-15T04:41:40;98879.75;;;1.94;83.62
19096;BME280;9680;52.520;13.332;2024-01-15T04:44:07;98875.38;;;1.97;83.76
19096;BME280;9680;52.520;13.332;2024-01-15T04:46:34;98871.97;;;1.97;83.26
19096;BME280;9680;52.520;13.332;2024-01-15T04:49:00;98863.66;;;1.88;83.31
19096;BME280;9680;52.520;13.332;2024-01-15T04:51:27;98857.94;;;1.80;83.44
19096;BME280;9680;52.520;13.332;2024-01-15T04:53:54;98862.56;;;1.70;83.77
19096;BME280;9680;52.520;13.332;2024-01-15T04:56:21;98849.72;;;1.70;83.91
19096;BME280;9680;52.520;13.332;2024-01-15T04:58:49;98848.63;;;1.78;83.77
19096;BME280;9680;52.520;13.332;2024-01-15T05:01:15;98857.75;;;1.86;83.52
19096;BME280;9680;52.520;13.332;2024-01-15T05:03:43;98857.72;;;1.88;83.19
19096;BME280;9680;52.520;13.332;2024-01-15T05:06:09;98853.19;;;1.95;83.13
19096;BME280;9680;52.520;13.332;2024-01-15T05:08:36;98864.25;;;1.97;82.88
19096;BME280;9680;52.520;13.332;2024-01-15T05:11:03;98861.75;;;1.95;82.43
19096;BME280;9680;52.520;13.332;2024-01-15T05:13:30;98863.47;;;1.95;82.62
19096;BME280;9680;52.520;13.332;2024-01-15T05:15:58;98869.34;;;1.98;82.60
19096;BME280;9680;52.520;13.332;2024-01-15T05:18:25;98859.78;;;2.03;82.54
19096;BME280;9680;52.520;13.332;2024-01-15T05:20:51;98854.59;;;2.05;82.73
19096;BME280;9680;52.520;13.332;2024-01-15T05:23:18;98864.91;;;2.03;82.78
19096;BME280;9680;52.520;13.332;2024-01-15T05:25:45;98859.78;;;2.03;82.78
19096;BME280;9680;52.520;13.332;2024-01-15T05:28:13;98858.84;;;2.06;82.70
19096;BME280;9680;52.520;13.332;2024-01-15T05:30:40;98856.28;;;2.06;82.67
19096;BME280;9680;52.520;13.332;2024-01-15T05:33:08;98847.56;;;2.10;82.51
19096;BME280;9680;52.520;13.332;2024-01-15T05:35:35;98833.84;;;2.11;82.20
19096;BME280;9680;52.520;13.332;2024-01-15T05:38:02;98838.03;;;2.14;82.18
19096;BME280;9680;52.520;13.332;2024-01-15T05:40:29;98841.44;;;2.14;81.85
19096;BME280;9680;52.520;13.332;2024-01-15T05:42:56;98840.59;;;2.14;81.88
19096;BME280;9680;52.520;13.332;2024-01-15T05:45:22;98838.81;;;2.16;81.85
19096;BME280;9680;52.520;13.332;2024-01-15T05:47:49;98839.69;;;2.15;81.50
19096;BME280;9680;52.520;13.332;2024-01-15T05:50:17;98833.72;;;2.14;81.79
19096;BME280;9680;52.520;13.332;2024-01-15T05:52:44;98836.91;;;2.21;81.93
19096;BME280;9680;52.520;13.332;2024-01-15T05:55:10;98835.25;;;2.20;82.19
19096;BME280;9680;52.520;13.332;2024-01-15T05:57:37;98844.94;;;2.12;82.87
19096;BME280;9680;52.520;13.332;2024-01-15T06:00:05;98846.78;;;2.08;83.64
19096;BME280;9680;52.520;13.332;2024-01-15T06:02:34;98846.91;;;2.05;84.28
19096;BME280;9680;52.520;13.332;2024-01-15T06:05:01;98836.81;;;1.99;84.58
19096;BME280;9680;52.520;13.332;2024-01-15T06:07:29;98843.63;;;2.00;84.85
19096;BME280;9680;52.520;13.332;2024-01-15T06:09:56;98840.88;;;2.06;84.76
19096;BME280;9680;52.520;13.332;2024-01-15T06:12:23;98838.28;;;2.06;84.74
19096;BME280;9680;52.520;13.332;2024-01-15T06:14:50;98816.69;;;2.12;84.56
19096;BME280;9680;52.520;13.332;2024-01-15T06:17:16;98832.16;;;2.10;83.64
19096;BME280;9680;52.520;13.332;2024-01-15T06:19:44;98844.13;;;2.11;83.88
19096;BME280;9680;52.520;13.332;2024-01-15T06:22:10;98830.63;;;2.04;83.73
19096;BME280;9680;52.520;13.332;2024-01-15T06:24:39;98835.88;;;2.01;83.43
19096;BME280;9680;52.520;13.332;2024-01-15T06:27:05;98839.28;;;2.02;83.82
19096;BME280;9680;52.520;13.332;2024-01-15T06:29:32;98842.53;;;2.07;83.89
19096;BME280;9680;52.520;13.332;2024-01-15T06:31:59;98841.66;;;2.08;84.17
19096;BME280;9680;52.520;13.332;2024-01-15T06:34:25;98831.41;;;2.07;84.24
19096;BME280;9680;52.520;13.332;2024-01-15T06:36:52;98836.50;;;2.08;84.30
19096;BME280;9680;52.520;13.332;2024-01-15T06:39:19;98837.19;;;2.13;84.40
19096;BME280;9680;52.520;13.332;2024-01-15T06:41:47;98837.13;;;2.15;84.18
19096;BME280;9680;52.520;13.332;2024-01-15T06:44:14;98839.59;;;2.18;84.15
19096;BME280;9680;52.520;13.332;2024-01-15T06:46:42;98839.66;;;2.16;83.88
19096;BME280;9680;52.520;13.332;2024-01-15T06:49:08;98836.34;;;2.13;83.89
19096;BME280;9680;52.520;13.332;2024-01-15T06:51:35;98837.19;;;2.13;84.04
19096;BME280;9680;52.520;13.332;2024-01-15T06:54:02;98842.16;;;2.18;83.88
19096;BME280;9680;52.520;13.332;2024-01-15T06:56:29;98836.13;;;2.19;83.74
19096;BME280;9680;52.520;13.332;2024-01-15T06:58:57;98829.09;;;2.24;83.66
19096;BME280;9680;52.520;13.332;2024-01-15T07:01:24;98837.59;;;2.26;83.19
19096;BME280;9680;52.520;13.332;2024-01-15T07:03:50;98832.63;;;2.22;82.32
19096;BME280;9680;52.520;13.332;2024-01-15T07:06:17;98827.38;;;2.25;82.43
19096;BME280;9680;52.520;13.332;2024-01-15T07:08:44;98856.66;;;2.21;81.98
19096;BME280;9680;52.520;13.332;2024-01-15T07:11:10;98855.69;;;2.23;81.97
19096;BME280;9680;52.520;13.332;2024-01-15T07:13:37;98860.72;;;2.26;81.76
19096;BME280;9680;52.520;13.332;2024-01-15T07:16:05;98856.38;;;2.28;81.01
19096;BME280;9680;52.520;13.332;2024-01-15T07:18:32;98853.00;;;2.26;81.39
19096;BME280;9680;52.520;13.332;2024-01-15T07:20:59;98865.69;;;2.32;81.08
19096;BME280;9680;52.520;13.332;2024-01-15T07:23:27;98875.84;;;2.36;80.45
19096;BME280;9680;52.520;13.332;2024-01-15T07:25:54;98878.44;;;2.36;80.24
19096;BME280;9680;52.520;13.332;2024-01-15T07:28:21;98892.06;;;2.38;79.73
19096;BME280;9680;52.520;13.332;2024-01-15T07:30:47;98877.47;;;2.38;80.23
19096;BME280;9680;52.520;13.332;2024-01-15T07:33:15;98888.38;;;2.45;80.16
19096;BME280;9680;52.520;13.332;2024-01-15T07:35:42;98889.91;;;2.51;79.65
19096;BME280;9680;52.520;13.332;2024-01-15T07:38:09;98893.53;;;2.45;79.27
19096;BME280;9680;52.520;13.332;2024-01-15T07:40:37;98895.16;;;2.47;78.87
19096;BME280;9680;52.520;13.332;2024-01-15T07:43:04;98897.78;;;2.46;78.81
19096;BME280;9680;52.520;13.332;2024-01-15T07:45:30;98888.31;;;2.46;78.94
19096;BME280;9680;52.520;13.332;2024-01-15T07:47:57;98890.78;;;2.50;78.96
19096;BME280;9680;52.520;13.332;2024-01-15T07:50:25;98895.00;;;2.52;78.91
19096;BME280;9680;52.520;13.332;2024-01-15T07:52:52;98901.84;;;2.52;78.83
19096;BME280;9680;52.520;13.332;2024-01-15T07:55:19;98908.84;;;2.48;78.84
19096;BME280;9680;52.520;13.332;2024-01-15T07:57:46;98906.28;;;2.48;79.02
19096;BME280;9680;52.520;13.332;2024-01-15T08:00:13;98919.16;;;2.46;78.49
19096;BME280;9680;52.520;13.332;2024-01-15T08:02:40;98907.28;;;2.44;78.91
19096;BME280;9680;52.520;13.332;2024-01-15T08:05:07;98907.22;;;2.45;78.76
19096;BME280;9680;52.520;13.332;2024-01-15T08:07:35;98903.81;;;2.45;78.70
19096;BME280;9680;52.520;13.332;2024-01-15T08:10:02;98908.63;;;2.54;78.95
19096;BME280;9680;52.520;13.332;2024-01-15T08:12:29;98921.50;;;2.54;78.99
19096;BME280;9680;52.520;13.332;2024-01-15T08:14:56;98905.22;;;2.54;78.71
19096;BME280;9680;52.520;13.332;2024-01-15T08:17:22;98909.53;;;2.53;78.59
19096;BME280;9680;52.520;13.332;2024-01-15T08:19:53;98925.78;;;2.54;78.88
19096;BME280;9680;52.520;13.332;2024-01-15T08:22:20;98908.53;;;2.57;79.20
19096;BME280;9680;52.520;13.332;2024-01-15T08:24:48;98903.22;;;2.62;79.12
19096;BME280;9680;52.520;13.332;2024-01-15T08:27:15;98908.09;;;2.70;79.07
19096;BME280;9680;52.520;13.332;2024-01-15T08:29:42;98911.34;;;2.75;78.27
19096;BME280;9680;52.520;13.332;2024-01-15T08:32:08;98912.25;;;2.74;77.81
19096;BME280;9680;52.520;13.332;2024-01-15T08:34:39;98914.81;;;2.74;77.83
19096;BME280;9680;52.520;13.332;2024-01-15T08:37:06;98914.03;;;2.72;77.38
19096;BME280;9680;52.520;13.332;2024-01-15T08:39:32;98919.13;;;2.73;78.14
19096;BME280;9680;52.520;13.332;2024-01-15T08:42:00;98928.47;;;2.76;78.04
19096;BME280;9680;52.520;13.332;2024-01-15T08:44:27;98914.88;;;2.72;77.74
19096;BME280;9680;52.520;13.332;2024-01-15T08:46:54;98931.00;;;2.78;77.89
19096;BME280;9680;52.520;13.332;2024-01-15T08:49:20;98927.41;;;2.82;77.26
19096;BME280;9680;52.520;13.332;2024-01-15T08:51:47;98919.91;;;2.75;77.45
19096;BME280;9680;52.520;13.332;2024-01-15T08:54:14;98921.72;;;2.73;76.98
19096;BME280;9680;52.520;13.332;2024-01-15T08:56:41;98930.34;;;2.71;76.92
19096;BME280;9680;52.520;13.332;2024-01-15T08:59:09;98930.47;;;2.68;77.06
19096;BME280;9680;52.520;13.332;2024-01-15T09:01:38;98934.91;;;2.62;77.79
19096;BME280;9680;52.520;13.332;2024-01-15T09:04:05;98939.03;;;2.68;78.08
19096;BME280;9680;52.520;13.332;2024-01-15T09:06:31;98941.41;;;2.73;77.49
19096;BME280;9680;52.520;13.332;2024-01-15T09:08:58;98948.13;;;2.77;77.87
19096;BME280;9680;52.520;13.332;2024-01-15T09:11:25;98938.63;;;2.79;77.99
19096;BME280;9680;52.520;13.332;2024-01-15T09:13:52;98937.63;;;2.83;78.13
19096;BME280;9680;52.520;13.332;2024-01-15T09:16:20;98941.84;;;2.86;78.15
19096;BME280;9680;52.520;13.332;2024-01-15T09:18:47;98965.88;;;2.85;77.73
19096;BME280;9680;52.520;13.332;2024-01-15T09:21:14;98943.56;;;2.85;77.82
19096;BME280;9680;52.520;13.332;2024-01-15T09:23:41;98961.41;;;2.90;77.65
19096;BME280;9680;52.520;13.332;2024-01-15T09:26:08;98955.38;;;2.91;77.73
19096;BME280;9680;52.520;13.332;2024-01-15T09:28:35;98954.50;;;2.92;77.65
19096;BME280;9680;52.520;13.332;2024-01-15T09:31:01;98955.28;;;2.94;77.40
19096;BME280;9680;52.520;13.332;2024-01-15T09:33:30;98964.66;;;2.95;77.79
19096;BME280;9680;52.520;13.332;2024-01-15T09:35:56;98961.50;;;3.12;77.97
19096;BME280;9680;52.520;13.332;2024-01-15T09:38:23;98958.50;;;3.25;77.14
19096;BME280;9680;52.520;13.332;2024-01-15T09:40:50;98963.69;;;3.23;76.96
19096;BME280;9680;52.520;13.332;2024-01-15T09:43:18;98966.09;;;3.04;76.85
19096;BME280;9680;52.520;13.332;2024-01-15T09:45:45;98968.81;;;2.99;77.41
19096;BME280;9680;52.520;13.332;2024-01-15T09:48:13;98968.81;;;2.99;77.38
19096;BME280;9680;52.520;13.332;2024-01-15T09:50:41;98954.16;;;3.01;77.94
19096;BME280;9680;52.520;13.332;2024-01-15T09:53:09;98951.25;;;3.11;77.58
19096;BME280;9680;52.520;13.332;2024-01-15T09:55:36;98958.94;;;3.12;77.61
19096;BME280;9680;52.520;13.332;2024-01-15T09:58:04;98962.91;;;3.21;76.71
19096;BME280;9680;52.520;13.332;2024-01-15T10:00:33;98959.19;;;3.28;76.76
19096;BME280;9680;52.520;13.332;2024-01-15T10:03:03;98954.56;;;3.38;76.44
19096;BME280;9680;52.520;13.332;2024-01-15T10:05:30;98952.88;;;3.37;76.25
19096;BME280;9680;52.520;13.332;2024-01-15T10:08:00;98949.19;;;3.44;75.84
19096;BME280;9680;52.520;13.332;2024-01-15T10:10:27;98945.06;;;3.40;75.17
19096;BME280;9680;52.520;13.332;2024-01-15T10:12:54;98950.88;;;3.45;75.88
19096;BME280;9680;52.520;13.332;2024-01-15T10:15:22;98945.25;;;3.35;75.50
19096;BME280;9680;52.520;13.332;2024-01-15T10:17:49;98942.78;;;3.32;75.50
19096;BME280;9680;52.520;13.332;2024-01-15T10:20:16;98942.81;;;3.31;75.54
19096;BME280;9680;52.520;13.332;2024-01-15T10:22:44;98944.66;;;3.51;75.98
19096;BME280;9680;52.520;13.332;2024-01-15T10:25:14;98937.97;;;3.69;75.30
19096;BME280;9680;52.520;13.332;2024-01-15T10:27:41;98936.34;;;3.67;73.04
19096;BME280;9680;52.520;13.332;2024-01-15T10:30:09;98930.38;;;3.66;74.01
19096;BME280;9680;52.520;13.332;2024-01-15T10:32:36;98952.22;;;3.78;73.21
19096;BME280;9680;52.520;13.332;2024-01-15T10:35:03;98927.69;;;3.69;73.17
19096;BME280;9680;52.520;13.332;2024-01-15T10:37:33;98935.44;;;3.68;73.69
19096;BME280;9680;52.520;13.332;2024-01-15T10:40:01;98921.84;;;3.64;73.60
19096;BME280;9680;52.520;13.332;2024-01-15T10:42:30;98924.41;;;3.64;73.94
19096;BME280;9680;52.520;13.332;2024-01-15T10:44:57;98934.78;;;3.62;73.63
19096;BME280;9680;52.520;13.332;2024-01-15T10:47:23;98932.38;;;3.58;73.76
19096;BME280;9680;52.520;13.332;2024-01-15T10:49:51;98933.28;;;3.57;73.47
19096;BME280;9680;52.520;13.332;2024-01-15T10:52:18;98949.75;;;3.53;73.03
19096;BME280;9680;52.520;13.332;2024-01-15T10:54:45;98938.22;;;3.39;73.66
19096;BME280;9680;52.520;13.332;2024-01-15T10:57:12;98933.03;;;3.41;73.91
19096;BME280;9680;52.520;13.332;2024-01-15T10:59:42;98934.63;;;3.43;73.68
19096;BME280;9680;52.520;13.332;2024-01-15T11:02:09;98939.50;;;3.51;73.19
19096;BME280;9680;52.520;13.332;2024-01-15T11:04:36;98945.25;;;3.58;73.20
19096;BME280;9680;52.520;13.332;2024-01-15T11:07:03;98943.25;;;3.66;72.32
19096;BME280;9680;52.520;13.332;2024-01-15T11:09:31;98930.94;;;3.50;72.92
19096;BME280;9680;52.520;13.332;2024-01-15T11:12:07;98933.50;;;3.50;73.04
19096;BME280;9680;52.520;13.332;2024-01-15T11:14:34;98940.44;;;3.48;73.45
19096;BME280;9680;52.520;13.332;2024-01-15T11:17:02;98941.34;;;3.47;73.24
19096;BME280;9680;52.520;13.332;2024-01-15T11:19:37;98936.53;;;3.38;74.14
19096;BME280;9680;52.520;13.332;2024-01-15T11:22:07;98934.94;;;3.35;75.03
19096;BME280;9680;52.520;13.332;2024-01-15T11:24:39;98935.72;;;3.38;75.18
19096;BME280;9680;52.520;13.332;2024-01-15T11:27:06;98947.59;;;3.42;75.07
19096;BME280;9680;52.520;13.332;2024-01-15T11:29:35;98950.50;;;3.32;75.74
19096;BME280;9680;52.520;13.332;2024-01-15T11:32:05;98948.91;;;3.28;76.11
19096;BME280;9680;52.520;13.332;2024-01-15T11:34:54;98957.09;;;3.40;76.11
19096;BME280;9680;52.520;13.332;2024-01-15T11:37:23;98952.38;;;3.27;76.13
19096;BME280;9680;52.520;13.332;2024-01-15T11:39:52;98971.41;;;3.23;76.81
19096;BME280;9680;52.520;13.332;2024-01-15T11:42:20;98958.16;;;3.10;78.42
19096;BME280;9680;52.520;13.332;2024-01-15T11:44:47;98953.06;;;3.09;78.38
19096;BME280;9680;52.520;13.332;2024-01-15T11:47:15;98968.84;;;2.98;79.83
19096;BME280;9680;52.520;13.332;2024-01-15T11:50:00;98961.56;;;2.85;80.47
19096;BME280;9680;52.520;13.332;2024-01-15T11:52:32;98962.19;;;2.67;82.16
19096;BME280;9680;52.520;13.332;2024-01-15T11:55:16;98972.91;;;2.54;83.32
19096;BME280;9680;52.520;13.332;2024-01-15T11:57:46;98971.56;;;2.42;83.73
19096;BME280;9680;52.520;13.332;2024-01-15T12:00:14;98980.28;;;2.38;83.98
19096;BME280;9680;52.520;13.332;2024-01-15T12:02:43;98976.78;;;2.41;84.49
19096;BME280;9680;52.520;13.332;2024-01-15T12:05:11;98975.91;;;2.40;84.52
19096;BME280;9680;52.520;13.332;2024-01-15T12:07:39;98979.25;;;2.44;84.59
19096;BME280;9680;52.520;13.332;2024-01-15T12:10:09;98977.19;;;2.54;84.84
19096;BME280;9680;52.520;13.332;2024-01-15T12:12:46;98970.13;;;2.60;83.77
19096;BME280;9680;52.520;13.332;2024-01-15T12:15:16;98966.88;;;2.55;84.04
19096;BME280;9680;52.520;13.332;2024-01-15T12:17:45;98981.63;;;2.50;83.93
19096;BME280;9680;52.520;13.332;2024-01-15T12:20:14;98980.75;;;2.50;83.48
19096;BME280;9680;52.520;13.332;2024-01-15T12:22:41;98986.00;;;2.46;84.15
19096;BME280;9680;52.520;13.332;2024-01-15T12:25:09;98976.47;;;2.50;83.81
19096;BME280;9680;52.520;13.332;2024-01-15T12:27:35;98973.59;;;2.59;83.98
19096;BME280;9680;52.520;13.332;2024-01-15T12:30:03;98975.19;;;2.62;83.76
19096;BME280;9680;52.520;13.332;2024-01-15T12:32:30;98972.50;;;2.67;84.04
19096;BME280;9680;52.520;13.332;2024-01-15T12:34:58;98975.84;;;2.69;83.10
19096;BME280;9680;52.520;13.332;2024-01-15T12:37:24;98976.81;;;2.66;83.18
19096;BME280;9680;52.520;13.332;2024-01-15T12:39:52;98980.22;;;2.67;83.40
19096;BME280;9680;52.520;13.332;2024-01-15T12:42:21;98983.88;;;2.59;83.16
19096;BME280;9680;52.520;13.332;2024-01-15T12:44:49;98996.28;;;2.46;84.11
19096;BME280;9680;52.520;13.332;2024-01-15T12:47:16;98990.72;;;2.33;84.90
19096;BME280;9680;52.520;13.332;2024-01-15T12:49:46;98991.75;;;2.28;86.50
19096;BME280;9680;52.520;13.332;2024-01-15T12:52:14;98990.97;;;2.24;87.09
19096;BME280;9680;52.520;13.332;2024-01-15T12:54:41;98997.91;;;2.22;86.96
19096;BME280;9680;52.520;13.332;2024-01-15T12:57:08;99002.44;;;2.14;88.33
19096;BME280;9680;52.520;13.332;2024-01-15T12:59:35;99015.00;;;2.23;88.16
19096;BME280;9680;52.520;13.332;2024-01-15T13:02:01;99010.63;;;2.27;88.00
19096;BME280;9680;52.520;13.332;2024-01-15T13:04:28;98999.91;;;2.41;88.28
19096;BME280;9680;52.520;13.332;2024-01-15T13:06:55;99008.44;;;2.41;86.80
19096;BME280;9680;52.520;13.332;2024-01-15T13:09:23;99023.13;;;2.38;87.02
19096;BME280;9680;52.520;13.332;2024-01-15T13:11:50;99017.03;;;2.40;86.46